Air Navigation Services of Czech Republic
Airport: LKMT Updated:  20.09.2021 16:30:28  UTC
 METAR LKMT 20.09. 16:30 ...
METAR LKMT 201630Z 01004KT CAVOK 11/07 Q1020 NOSIG RMK REG QNH 1017=
 TAF LKMT 20.09. 11:00 ...
TAF LKMT 201100Z 2012/2118 03006KT 9999 SCT016 BKN036      TEMPO 2012/2018 SCT013 BKN026      TEMPO 2100/2107 4000 BR BKN009      PROB30 TEMPO 2101/2106 1200 MIFG BKN003=